createdAt,value
2018-07-26T00:01:18.798Z,4.53
2018-07-26T00:03:46.882Z,7.47
2018-07-26T00:06:15.258Z,9.13
2018-07-26T00:08:43.703Z,5.57
2018-07-26T00:11:11.800Z,4.93
2018-07-26T00:13:39.883Z,9.40
2018-07-26T00:16:08.018Z,5.43
2018-07-26T00:18:36.193Z,5.30
2018-07-26T00:21:04.576Z,5.10
2018-07-26T00:23:32.738Z,6.30
2018-07-26T00:26:00.847Z,4.60
2018-07-26T00:28:28.971Z,4.30
2018-07-26T00:30:57.064Z,4.37
2018-07-26T00:33:25.171Z,4.97
2018-07-26T00:35:53.462Z,5.70
2018-07-26T00:38:21.623Z,7.73
2018-07-26T00:40:49.724Z,4.70
2018-07-26T00:43:17.989Z,5.50
2018-07-26T00:45:46.098Z,4.90
2018-07-26T00:48:14.200Z,5.90
2018-07-26T00:50:42.296Z,7.03
2018-07-26T00:53:10.395Z,4.53
2018-07-26T00:55:38.706Z,4.57
2018-07-26T00:58:06.783Z,5.23
2018-07-26T01:00:34.858Z,8.93
2018-07-26T01:03:02.962Z,4.50
2018-07-26T01:05:31.038Z,6.03
2018-07-26T01:07:59.122Z,5.10
2018-07-26T01:10:27.462Z,4.63
2018-07-26T01:12:55.526Z,6.07
2018-07-26T01:15:23.631Z,6.07
2018-07-26T01:17:51.731Z,4.63
2018-07-26T01:20:20.047Z,4.97
2018-07-26T01:22:48.135Z,5.13
2018-07-26T01:25:16.215Z,5.03
2018-07-26T01:27:44.302Z,7.10
2018-07-26T01:30:12.379Z,5.00
2018-07-26T01:32:40.467Z,4.63
2018-07-26T01:35:08.567Z,5.80
2018-07-26T01:37:36.622Z,8.83
2018-07-26T01:40:04.918Z,5.17
2018-07-26T01:42:44.920Z,6.27
2018-07-26T01:45:13.050Z,4.90
2018-07-26T01:47:41.142Z,5.93
2018-07-26T01:50:09.212Z,8.37
2018-07-26T01:52:37.303Z,5.33
2018-07-26T01:55:05.386Z,5.70
2018-07-26T01:57:33.481Z,5.23
2018-07-26T02:00:01.552Z,4.30
2018-07-26T02:02:29.610Z,5.17
2018-07-26T02:04:57.684Z,5.67
2018-07-26T02:07:26.091Z,6.97
2018-07-26T02:09:54.470Z,5.17
2018-07-26T02:12:22.846Z,6.57
2018-07-26T02:14:50.898Z,5.40
2018-07-26T02:17:18.967Z,5.87
2018-07-26T02:19:47.045Z,4.67
2018-07-26T02:22:15.111Z,4.33
2018-07-26T02:24:43.191Z,4.40
2018-07-26T02:27:11.275Z,6.70
2018-07-26T02:29:39.366Z,6.80
2018-07-26T02:32:07.510Z,7.93
2018-07-26T02:34:35.594Z,5.67
2018-07-26T02:37:03.704Z,4.93
2018-07-26T02:39:31.777Z,7.37
2018-07-26T02:41:59.890Z,4.10
2018-07-26T02:44:27.946Z,4.27
2018-07-26T02:46:56.035Z,4.47
2018-07-26T02:49:24.099Z,5.90
2018-07-26T02:51:52.166Z,4.93
2018-07-26T02:54:20.236Z,6.63
2018-07-26T02:56:48.304Z,5.30
2018-07-26T02:59:16.378Z,5.33
2018-07-26T03:01:44.470Z,4.53
2018-07-26T03:04:12.811Z,7.80
2018-07-26T03:06:40.892Z,5.00
2018-07-26T03:09:09.519Z,9.03
2018-07-26T03:11:37.605Z,4.13
2018-07-26T03:14:05.955Z,4.83
2018-07-26T03:16:34.027Z,5.77
2018-07-26T03:19:02.090Z,5.03
2018-07-26T03:21:30.162Z,5.47
2018-07-26T03:23:58.230Z,5.20
2018-07-26T03:26:26.305Z,4.10
2018-07-26T03:28:54.404Z,4.70
2018-07-26T03:31:22.474Z,6.90
2018-07-26T03:33:50.534Z,7.83
2018-07-26T03:36:18.607Z,5.37
2018-07-26T03:38:46.666Z,7.03
2018-07-26T03:41:14.742Z,4.70
2018-07-26T03:43:42.902Z,4.80
2018-07-26T03:46:10.894Z,6.33
2018-07-26T03:48:38.986Z,6.40
2018-07-26T03:51:07.395Z,4.30
2018-07-26T03:53:35.434Z,5.40
2018-07-26T03:56:03.514Z,4.80
2018-07-26T03:58:31.868Z,9.87
2018-07-26T04:00:59.972Z,6.73
2018-07-26T04:03:28.094Z,6.57
2018-07-26T04:05:56.108Z,4.33
2018-07-26T04:08:24.199Z,5.60
2018-07-26T04:10:52.277Z,5.83
2018-07-26T04:13:20.379Z,4.47
2018-07-26T04:15:48.496Z,5.67
2018-07-26T04:18:16.565Z,5.33
2018-07-26T04:20:44.637Z,6.00
2018-07-26T04:23:13.006Z,7.13
2018-07-26T04:25:41.090Z,5.33
2018-07-26T04:28:09.173Z,5.03
2018-07-26T04:30:37.254Z,4.93
2018-07-26T04:33:05.346Z,5.90
2018-07-26T04:35:33.422Z,7.50
2018-07-26T04:38:01.530Z,4.73
2018-07-26T04:40:29.709Z,6.93
2018-07-26T04:42:57.824Z,5.77
2018-07-26T04:45:25.956Z,6.47
2018-07-26T04:47:54.026Z,8.17
2018-07-26T04:50:22.128Z,6.57
2018-07-26T04:52:50.280Z,7.87
2018-07-26T04:55:18.515Z,8.37
2018-07-26T04:57:46.650Z,8.63
2018-07-26T05:00:14.718Z,11.10
2018-07-26T05:02:42.834Z,10.03
2018-07-26T05:05:11.131Z,10.13
2018-07-26T05:07:39.226Z,11.67
2018-07-26T05:10:07.319Z,12.73
2018-07-26T05:12:35.392Z,8.10
2018-07-26T05:15:03.563Z,10.43
2018-07-26T05:17:31.629Z,6.37
2018-07-26T05:20:00.016Z,7.63
2018-07-26T05:22:28.084Z,5.70
2018-07-26T05:24:56.161Z,5.57
2018-07-26T05:27:24.218Z,8.17
2018-07-26T05:29:52.286Z,8.37
2018-07-26T05:32:20.378Z,14.80
2018-07-26T05:34:48.706Z,8.57
2018-07-26T05:37:16.806Z,12.30
2018-07-26T05:39:45.131Z,8.97
2018-07-26T05:42:13.234Z,6.60
2018-07-26T05:44:41.314Z,5.50
2018-07-26T05:47:09.594Z,9.10
2018-07-26T05:49:37.694Z,6.97
2018-07-26T05:52:06.152Z,11.50
2018-07-26T05:54:34.214Z,7.83
2018-07-26T05:57:02.290Z,9.23
2018-07-26T05:59:30.371Z,8.43
2018-07-26T06:01:58.478Z,15.17
2018-07-26T06:04:26.555Z,5.57
2018-07-26T06:06:54.636Z,8.67
2018-07-26T06:09:23.034Z,8.80
2018-07-26T06:11:51.108Z,6.57
2018-07-26T06:14:19.188Z,5.77
2018-07-26T06:16:47.254Z,6.73
2018-07-26T06:19:15.338Z,7.67
2018-07-26T06:21:43.410Z,7.07
2018-07-26T06:24:11.498Z,6.43
2018-07-26T06:26:39.578Z,9.47
2018-07-26T06:29:07.677Z,9.37
2018-07-26T06:31:35.746Z,6.00
2018-07-26T06:34:03.835Z,4.67
2018-07-26T06:36:31.926Z,5.53
2018-07-26T06:39:00.011Z,6.27
2018-07-26T06:41:28.090Z,6.83
2018-07-26T06:43:56.175Z,6.73
2018-07-26T06:46:24.267Z,5.60
2018-07-26T06:48:52.342Z,7.60
2018-07-26T06:51:20.430Z,7.17
2018-07-26T06:53:48.506Z,7.03
2018-07-26T06:56:16.834Z,6.03
2018-07-26T06:58:44.918Z,6.10
2018-07-26T07:01:12.985Z,4.87
2018-07-26T07:03:41.348Z,5.07
2018-07-26T07:06:09.430Z,5.90
2018-07-26T07:08:38.702Z,6.07
2018-07-26T07:11:06.814Z,6.33
2018-07-26T07:13:34.891Z,6.07
2018-07-26T07:16:02.982Z,6.27
2018-07-26T07:18:31.055Z,3.90
2018-07-26T07:20:59.115Z,5.53
2018-07-26T07:23:27.186Z,4.60
2018-07-26T07:25:55.250Z,5.60
2018-07-26T07:28:23.338Z,3.63
2018-07-26T07:30:51.402Z,4.23
2018-07-26T07:33:19.537Z,5.00
2018-07-26T07:35:47.587Z,5.97
2018-07-26T07:38:15.955Z,4.83
2018-07-26T07:40:44.026Z,5.80
2018-07-26T07:43:12.099Z,4.77
2018-07-26T07:45:40.210Z,4.10
2018-07-26T07:48:08.330Z,3.40
2018-07-26T07:50:36.422Z,4.57
2018-07-26T07:53:04.502Z,4.17
2018-07-26T07:55:32.599Z,4.10
2018-07-26T07:58:00.676Z,7.73
2018-07-26T08:00:28.755Z,4.73
2018-07-26T08:02:56.819Z,4.10
2018-07-26T08:05:24.957Z,3.67
2018-07-26T08:07:52.999Z,3.60
2018-07-26T08:10:21.073Z,5.87
2018-07-26T08:12:49.142Z,4.63
2018-07-26T08:15:17.210Z,3.77
2018-07-26T08:17:45.279Z,4.80
2018-07-26T08:20:13.360Z,3.10
2018-07-26T08:22:41.462Z,3.20
2018-07-26T08:25:10.175Z,3.60
2018-07-26T08:27:38.284Z,3.27
2018-07-26T08:30:08.071Z,4.47
2018-07-26T08:32:36.134Z,3.33
2018-07-26T08:35:04.261Z,4.20
2018-07-26T08:37:32.310Z,5.00
2018-07-26T08:40:00.384Z,3.03
2018-07-26T08:42:28.467Z,3.97
2018-07-26T08:44:56.555Z,4.10
2018-07-26T08:47:24.619Z,3.30
2018-07-26T08:49:52.690Z,3.50
2018-07-26T08:52:20.814Z,3.40
2018-07-26T08:54:48.846Z,4.63
2018-07-26T08:57:16.898Z,3.20
2018-07-26T08:59:44.975Z,3.20
2018-07-26T09:02:13.067Z,3.13
2018-07-26T09:04:41.143Z,2.70
2018-07-26T09:07:09.222Z,3.90
2018-07-26T09:09:37.290Z,4.07
2018-07-26T09:12:05.386Z,4.53
2018-07-26T09:14:33.595Z,3.10
2018-07-26T09:17:01.663Z,2.90
2018-07-26T09:19:29.730Z,2.93
2018-07-26T09:21:58.075Z,3.00
2018-07-26T09:24:26.205Z,2.93
2018-07-26T09:26:54.322Z,3.40
2018-07-26T09:29:22.514Z,2.90
2018-07-26T09:31:50.599Z,3.53
2018-07-26T09:34:18.671Z,3.67
2018-07-26T09:36:47.000Z,4.20
2018-07-26T09:39:16.040Z,3.83
2018-07-26T09:41:44.319Z,2.90
2018-07-26T09:44:12.490Z,3.57
2018-07-26T09:46:40.774Z,2.83
2018-07-26T09:49:08.830Z,3.80
2018-07-26T09:51:37.471Z,3.30
2018-07-26T09:54:05.795Z,3.80
2018-07-26T09:56:33.922Z,3.60
2018-07-26T09:59:02.003Z,3.13
2018-07-26T10:01:32.363Z,3.13
2018-07-26T10:04:00.739Z,2.87
2018-07-26T10:06:29.326Z,2.87
2018-07-26T10:08:57.594Z,2.97
2018-07-26T10:11:26.511Z,3.40
2018-07-26T10:13:54.781Z,2.60
2018-07-26T10:16:22.862Z,3.13
2018-07-26T10:18:51.877Z,2.73
2018-07-26T10:21:19.968Z,2.60
2018-07-26T10:23:48.039Z,2.33
2018-07-26T10:26:16.187Z,2.50
2018-07-26T10:28:44.265Z,2.87
2018-07-26T10:31:12.351Z,4.20
2018-07-26T10:33:40.418Z,2.70
2018-07-26T10:36:08.534Z,2.80
2018-07-26T10:38:36.598Z,2.90
2018-07-26T10:41:04.910Z,3.30
2018-07-26T10:43:33.414Z,2.60
2018-07-26T10:46:01.565Z,3.03
2018-07-26T10:48:29.774Z,2.73
2018-07-26T10:50:57.890Z,2.67
2018-07-26T10:53:25.954Z,2.93
2018-07-26T10:55:54.039Z,2.50
2018-07-26T10:58:22.102Z,2.80
2018-07-26T11:00:50.189Z,3.53
2018-07-26T11:03:18.255Z,2.40
2018-07-26T11:05:46.331Z,2.30
2018-07-26T11:08:14.399Z,2.50
2018-07-26T11:10:42.466Z,2.50
2018-07-26T11:13:10.539Z,2.33
2018-07-26T11:15:38.603Z,3.07
2018-07-26T11:18:06.673Z,3.47
2018-07-26T11:20:34.743Z,2.77
2018-07-26T11:23:02.814Z,2.63
2018-07-26T11:25:30.897Z,2.80
2018-07-26T11:27:58.974Z,2.50
2018-07-26T11:30:27.050Z,2.43
2018-07-26T11:32:55.123Z,2.33
2018-07-26T11:35:23.267Z,2.20
2018-07-26T11:37:51.347Z,3.30
2018-07-26T11:40:19.399Z,2.10
2018-07-26T11:42:47.470Z,2.63
2018-07-26T11:45:15.530Z,2.20
2018-07-26T11:47:43.607Z,2.80
2018-07-26T11:50:12.246Z,2.40
2018-07-26T11:52:40.342Z,2.90
2018-07-26T11:55:08.483Z,2.10
2018-07-26T11:57:36.554Z,2.20
2018-07-26T12:00:05.483Z,2.20
2018-07-26T12:02:33.616Z,2.00
2018-07-26T12:05:01.623Z,2.10
2018-07-26T12:07:29.707Z,2.50
2018-07-26T12:09:57.775Z,2.30
2018-07-26T12:12:25.854Z,2.00
2018-07-26T12:14:54.023Z,2.57
2018-07-26T12:17:22.098Z,2.37
2018-07-26T12:19:50.452Z,3.23
2018-07-26T12:22:18.531Z,2.10
2018-07-26T12:24:46.603Z,1.90
2018-07-26T12:27:14.686Z,2.20
2018-07-26T12:29:42.758Z,1.93
2018-07-26T12:32:10.842Z,2.73
2018-07-26T12:34:38.923Z,1.90
2018-07-26T12:37:07.007Z,1.90
2018-07-26T12:39:35.090Z,2.03
2018-07-26T12:42:03.191Z,1.80
2018-07-26T12:44:31.283Z,2.23
2018-07-26T12:46:59.363Z,2.13
2018-07-26T12:49:27.430Z,1.90
2018-07-26T12:51:55.528Z,2.10
2018-07-26T12:54:23.595Z,2.10
2018-07-26T12:56:51.674Z,2.20
2018-07-26T12:59:19.755Z,5.93
2018-07-26T13:01:48.152Z,4.73
2018-07-26T13:04:16.211Z,2.27
2018-07-26T13:06:44.297Z,3.10
2018-07-26T13:09:12.388Z,3.30
2018-07-26T13:11:40.890Z,4.33
2018-07-26T13:14:09.429Z,3.97
2018-07-26T13:16:37.815Z,3.63
2018-07-26T13:19:05.907Z,5.30
2018-07-26T13:21:33.978Z,6.53
2018-07-26T13:24:02.158Z,3.13
2018-07-26T13:26:30.230Z,6.03
2018-07-26T13:28:58.323Z,3.17
2018-07-26T13:31:26.398Z,6.40
2018-07-26T13:33:54.491Z,4.57
2018-07-26T13:36:22.575Z,2.20
2018-07-26T13:38:50.753Z,2.73
2018-07-26T13:41:18.827Z,5.30
2018-07-26T13:43:46.902Z,7.53
2018-07-26T13:46:15.067Z,3.27
2018-07-26T13:48:42.971Z,2.40
2018-07-26T13:51:11.051Z,4.43
2018-07-26T13:53:39.134Z,4.57
2018-07-26T13:56:07.506Z,4.07
2018-07-26T13:58:35.597Z,3.27
2018-07-26T14:01:03.471Z,6.05
2018-07-26T14:03:31.595Z,6.17
2018-07-26T14:05:59.681Z,9.23
2018-07-26T14:08:27.792Z,7.00
2018-07-26T14:10:55.855Z,4.73
2018-07-26T14:13:23.944Z,9.17
2018-07-26T14:15:52.060Z,8.27
2018-07-26T14:18:20.099Z,3.60
2018-07-26T14:20:48.253Z,6.40
2018-07-26T14:23:21.734Z,5.13
2018-07-26T14:25:49.809Z,5.27
2018-07-26T14:28:17.883Z,5.97
2018-07-26T14:30:45.961Z,4.83
2018-07-26T14:33:14.054Z,10.33
2018-07-26T14:35:42.126Z,7.97
2018-07-26T14:38:10.273Z,4.27
2018-07-26T14:40:38.326Z,5.87
2018-07-26T14:43:06.679Z,5.53
2018-07-26T14:45:34.751Z,7.57
2018-07-26T14:48:02.842Z,4.63
2018-07-26T14:50:31.335Z,3.30
2018-07-26T14:52:59.406Z,7.13
2018-07-26T14:55:27.494Z,2.47
2018-07-26T14:57:55.624Z,12.10
2018-07-26T15:00:23.707Z,6.70
2018-07-26T15:02:51.869Z,5.37
2018-07-26T15:05:19.955Z,4.57
2018-07-26T15:07:48.090Z,5.43
2018-07-26T15:10:16.157Z,4.77
2018-07-26T15:12:44.231Z,5.47
2018-07-26T15:15:12.322Z,5.07
2018-07-26T15:17:40.430Z,6.07
2018-07-26T15:20:08.515Z,3.27
2018-07-26T15:22:36.594Z,5.70
2018-07-26T15:25:04.962Z,5.53
2018-07-26T15:27:33.050Z,5.77
2018-07-26T15:30:01.158Z,3.90
2018-07-26T15:32:29.335Z,2.37
2018-07-26T15:34:57.339Z,5.07
2018-07-26T15:37:25.419Z,4.60
2018-07-26T15:39:53.747Z,2.67
2018-07-26T15:42:21.835Z,3.47
2018-07-26T15:44:49.930Z,3.50
2018-07-26T15:47:18.290Z,3.57
2018-07-26T15:49:46.395Z,7.13
2018-07-26T15:52:14.487Z,4.87
2018-07-26T15:54:42.578Z,4.60
2018-07-26T15:57:10.750Z,4.57
2018-07-26T15:59:38.950Z,5.43
2018-07-26T16:02:07.035Z,4.20
2018-07-26T16:04:35.114Z,5.50
2018-07-26T16:07:03.198Z,6.73
2018-07-26T16:09:31.579Z,7.93
2018-07-26T16:11:59.970Z,3.90
2018-07-26T16:14:28.046Z,3.40
2018-07-26T16:16:56.113Z,4.20
2018-07-26T16:19:24.215Z,5.80
2018-07-26T16:21:52.558Z,2.97
2018-07-26T16:24:20.639Z,3.90
2018-07-26T16:26:48.698Z,5.10
2018-07-26T16:29:16.779Z,4.33
2018-07-26T16:31:44.874Z,3.40
2018-07-26T16:34:12.962Z,6.53
2018-07-26T16:36:41.028Z,2.80
2018-07-26T16:39:10.644Z,3.50
2018-07-26T16:41:38.707Z,3.03
2018-07-26T16:44:06.887Z,3.10
2018-07-26T16:46:35.220Z,2.63
2018-07-26T16:49:03.278Z,2.93
2018-07-26T16:51:31.385Z,3.23
2018-07-26T16:53:59.447Z,4.87
2018-07-26T16:56:27.620Z,5.80
2018-07-26T16:58:55.907Z,3.13
2018-07-26T17:01:23.815Z,4.60
2018-07-26T17:03:51.916Z,2.87
2018-07-26T17:06:19.971Z,3.70
2018-07-26T17:08:48.646Z,2.60
2018-07-26T17:11:16.907Z,3.10
2018-07-26T17:13:44.950Z,3.40
2018-07-26T17:16:13.330Z,3.80
2018-07-26T17:18:41.495Z,6.10
2018-07-26T17:21:09.539Z,3.13
2018-07-26T17:23:37.670Z,2.93
2018-07-26T17:26:05.711Z,3.43
2018-07-26T17:28:33.786Z,3.50
2018-07-26T17:31:01.870Z,4.13
2018-07-26T17:33:29.960Z,7.27
2018-07-26T17:35:58.515Z,3.93
2018-07-26T17:38:26.573Z,7.93
2018-07-26T17:40:54.950Z,3.70
2018-07-26T17:43:23.214Z,5.97
2018-07-26T17:45:51.286Z,3.50
2018-07-26T17:48:19.566Z,4.60
2018-07-26T17:50:47.666Z,3.50
2018-07-26T17:53:15.735Z,4.83
2018-07-26T17:55:43.674Z,4.87
2018-07-26T17:58:11.756Z,5.33
2018-07-26T18:00:39.835Z,6.23
2018-07-26T18:03:07.910Z,3.77
2018-07-26T18:05:35.982Z,6.10
2018-07-26T18:08:04.068Z,4.50
2018-07-26T18:10:32.158Z,8.00
2018-07-26T18:13:00.231Z,8.77
2018-07-26T18:15:28.322Z,5.43
2018-07-26T18:17:56.406Z,5.77
2018-07-26T18:20:24.494Z,7.97
2018-07-26T18:22:52.579Z,11.17
2018-07-26T18:25:20.654Z,7.27
2018-07-26T18:27:48.932Z,8.47
2018-07-26T18:30:17.014Z,8.03
2018-07-26T18:32:45.249Z,11.83
2018-07-26T18:35:13.267Z,9.23
2018-07-26T18:37:41.338Z,9.77
2018-07-26T18:40:09.422Z,6.77
2018-07-26T18:42:37.726Z,8.43
2018-07-26T18:45:07.279Z,5.00
2018-07-26T18:47:35.375Z,4.90
2018-07-26T18:50:03.534Z,4.60
2018-07-26T18:52:31.612Z,5.87
2018-07-26T18:54:59.678Z,8.50
2018-07-26T18:57:27.769Z,7.50
2018-07-26T18:59:55.875Z,6.97
2018-07-26T19:02:24.699Z,6.23
2018-07-26T19:04:52.786Z,5.00
2018-07-26T19:07:20.866Z,6.53
2018-07-26T19:09:48.948Z,5.30
2018-07-26T19:12:17.026Z,7.83
2018-07-26T19:14:45.183Z,6.07
2018-07-26T19:17:13.260Z,5.40
2018-07-26T19:19:41.335Z,5.50
2018-07-26T19:22:13.191Z,7.50
2018-07-26T19:24:41.264Z,6.40
2018-07-26T19:27:09.346Z,4.87
2018-07-26T19:29:37.415Z,9.30
2018-07-26T19:32:06.693Z,5.80
2018-07-26T19:34:34.762Z,5.07
2018-07-26T19:37:02.843Z,4.60
2018-07-26T19:39:30.933Z,4.93
2018-07-26T19:41:59.027Z,6.27
2018-07-26T19:44:27.099Z,5.53
2018-07-26T19:46:55.174Z,5.83
2018-07-26T19:49:23.265Z,4.40
2018-07-26T19:51:51.459Z,8.73
2018-07-26T19:54:19.531Z,10.53
2018-07-26T19:56:47.634Z,12.27
2018-07-26T19:59:15.707Z,6.60
2018-07-26T20:01:43.791Z,6.97
2018-07-26T20:04:11.890Z,9.53
2018-07-26T20:06:39.953Z,5.27
2018-07-26T20:09:09.162Z,5.37
2018-07-26T20:11:37.246Z,6.60
2018-07-26T20:14:05.919Z,5.77
2018-07-26T20:16:33.990Z,5.50
2018-07-26T20:19:02.271Z,6.30
2018-07-26T20:21:30.351Z,12.87
2018-07-26T20:23:58.430Z,8.17
2018-07-26T20:26:26.498Z,9.20
2018-07-26T20:28:54.587Z,5.73
2018-07-26T20:31:22.674Z,7.07
2018-07-26T20:33:50.767Z,5.93
2018-07-26T20:36:18.844Z,5.43
2018-07-26T20:38:47.025Z,6.90
2018-07-26T20:41:15.103Z,6.10
2018-07-26T20:43:43.194Z,5.23
2018-07-26T20:46:11.270Z,6.43
2018-07-26T20:48:39.692Z,10.17
2018-07-26T20:51:07.742Z,5.93
2018-07-26T20:53:35.834Z,5.20
2018-07-26T20:56:03.907Z,7.73
2018-07-26T20:58:31.995Z,14.93
2018-07-26T21:01:00.335Z,7.10
2018-07-26T21:03:28.410Z,7.07
2018-07-26T21:05:56.490Z,5.17
2018-07-26T21:08:24.567Z,7.03
2018-07-26T21:10:52.630Z,7.03
2018-07-26T21:13:20.742Z,5.30
2018-07-26T21:15:48.691Z,5.17
2018-07-26T21:18:16.817Z,7.23
2018-07-26T21:20:44.851Z,5.40
2018-07-26T21:23:13.002Z,7.10
2018-07-26T21:25:41.084Z,5.53
2018-07-26T21:28:09.161Z,7.37
2018-07-26T21:30:37.242Z,6.33
2018-07-26T21:33:05.507Z,7.77
2018-07-26T21:35:33.571Z,7.10
2018-07-26T21:38:01.671Z,7.53
2018-07-26T21:40:29.836Z,7.97
2018-07-26T21:42:57.868Z,6.10
2018-07-26T21:45:25.971Z,7.13
2018-07-26T21:47:54.046Z,6.93
2018-07-26T21:50:22.150Z,7.63
2018-07-26T21:52:50.229Z,6.90
2018-07-26T21:55:18.758Z,10.00
2018-07-26T21:57:46.786Z,12.77
2018-07-26T22:00:14.859Z,6.07
2018-07-26T22:02:42.938Z,5.70
2018-07-26T22:05:11.036Z,10.80
2018-07-26T22:07:39.340Z,8.70
2018-07-26T22:10:07.716Z,9.80
2018-07-26T22:12:35.787Z,8.00
2018-07-26T22:15:04.913Z,7.90
2018-07-26T22:17:32.951Z,8.23
2018-07-26T22:20:01.024Z,8.43
2018-07-26T22:22:29.087Z,8.77
2018-07-26T22:24:57.166Z,9.67
2018-07-26T22:27:25.227Z,7.50
2018-07-26T22:29:53.314Z,6.23
2018-07-26T22:32:21.384Z,6.90
2018-07-26T22:34:49.443Z,6.60
2018-07-26T22:37:17.499Z,7.43
2018-07-26T22:39:45.574Z,6.70
2018-07-26T22:42:13.632Z,5.80
2018-07-26T22:44:41.694Z,5.83
2018-07-26T22:47:09.743Z,6.07
2018-07-26T22:49:37.807Z,5.43
2018-07-26T22:52:05.867Z,6.67
2018-07-26T22:54:33.951Z,5.93
2018-07-26T22:57:01.995Z,7.87
2018-07-26T22:59:30.069Z,7.70
2018-07-26T23:01:58.130Z,8.93
2018-07-26T23:04:26.190Z,6.90
2018-07-26T23:06:54.258Z,7.00
2018-07-26T23:09:22.323Z,5.50
2018-07-26T23:11:50.385Z,6.53
2018-07-26T23:14:18.451Z,6.70
2018-07-26T23:16:46.499Z,8.10
2018-07-26T23:19:14.593Z,9.60
2018-07-26T23:21:43.766Z,9.37
2018-07-26T23:24:12.063Z,6.97
2018-07-26T23:26:40.120Z,6.63
2018-07-26T23:29:08.192Z,5.37
2018-07-26T23:31:36.419Z,5.63
2018-07-26T23:34:04.479Z,6.10
2018-07-26T23:36:32.534Z,6.67
2018-07-26T23:39:00.608Z,8.23
2018-07-26T23:41:28.695Z,6.37
2018-07-26T23:43:56.758Z,5.77
2018-07-26T23:46:24.815Z,6.70
2018-07-26T23:48:52.878Z,10.63
2018-07-26T23:51:20.946Z,6.20
2018-07-26T23:53:49.007Z,6.07
2018-07-26T23:56:17.072Z,5.33
2018-07-26T23:58:45.222Z,5.93
